Terminal Aerodrome Forecast
Issued by NWS

Home | Current Version | Previous Version | Graphics & Text | Print | Product List | Glossary On
Versions: 1 2 3 4 5 6 7 8 9 10 11 12 13
000
FTUS43 KICT 181700
TAFRSL
TAF
KRSL 181720Z 1818/1918 01006KT P6SM SCT250
     FM182100 12007KT P6SM SCT250
     FM190600 17007KT P6SM BKN250=

USA.gov is the U.S. government's official web portal to all federal, state and local government web resources and services.